Worcester, Massachusetts
Current Conditions -  °F | °C
As of 10:54 PM on Tuesday 27 Jan 2015 (Local Time) from KORH Reporting Station
Overcast Overcast  
Wind Chill: -22°   Ceiling: 8000
Heat Index: -13°   Visibility: 10mi
Dew Point: -17°   Wind: 15mph
Humidity: 73%   Direction: 320°NW
Pressure: 29.61"   Gusts: 23mph
Location:  42.26°N, 71.8°W
Report Text: KORH 280354Z AUTO 32013G20KT 10SM OVC080 M13/M17 A2961 RMK AO2 SLP047 T11281167 $
Loading
Personal Weather Stations






























Interactive Weather Map New forecast layout! Learn more

10-Day Weather Forecast

Advertisements
Track Severe Weather on mobile